sensor_id;sensor_type;location;lat;lon;timestamp;P1;durP1;ratioP1;P2;durP2;ratioP2
60076;SDS011;45950;45.208;20.374;2023-08-30T00:00:39;11.05;;;6.70;;
60076;SDS011;45950;45.208;20.374;2023-08-30T00:03:05;8.98;;;6.32;;
60076;SDS011;45950;45.208;20.374;2023-08-30T00:05:33;10.00;;;6.07;;
60076;SDS011;45950;45.208;20.374;2023-08-30T00:08:00;10.77;;;6.70;;
60076;SDS011;45950;45.208;20.374;2023-08-30T00:10:27;8.65;;;7.15;;
60076;SDS011;45950;45.208;20.374;2023-08-30T00:12:53;11.75;;;7.07;;
60076;SDS011;45950;45.208;20.374;2023-08-30T00:15:21;14.93;;;7.45;;
60076;SDS011;45950;45.208;20.374;2023-08-30T00:17:47;16.85;;;6.65;;
60076;SDS011;45950;45.208;20.374;2023-08-30T00:20:16;18.35;;;8.40;;
60076;SDS011;45950;45.208;20.374;2023-08-30T00:22:44;16.90;;;7.10;;
60076;SDS011;45950;45.208;20.374;2023-08-30T00:25:11;12.55;;;6.63;;
60076;SDS011;45950;45.208;20.374;2023-08-30T00:27:37;15.27;;;7.03;;
60076;SDS011;45950;45.208;20.374;2023-08-30T00:30:05;18.02;;;7.25;;
60076;SDS011;45950;45.208;20.374;2023-08-30T00:32:33;15.25;;;7.93;;
60076;SDS011;45950;45.208;20.374;2023-08-30T00:35:00;16.05;;;8.82;;
60076;SDS011;45950;45.208;20.374;2023-08-30T00:37:26;14.88;;;7.85;;
60076;SDS011;45950;45.208;20.374;2023-08-30T00:39:54;9.80;;;6.97;;
60076;SDS011;45950;45.208;20.374;2023-08-30T00:42:21;13.05;;;7.32;;
60076;SDS011;45950;45.208;20.374;2023-08-30T00:44:47;10.05;;;7.22;;
60076;SDS011;45950;45.208;20.374;2023-08-30T00:47:14;12.63;;;9.15;;
60076;SDS011;45950;45.208;20.374;2023-08-30T00:49:40;12.68;;;8.20;;
60076;SDS011;45950;45.208;20.374;2023-08-30T00:52:07;13.05;;;8.68;;
60076;SDS011;45950;45.208;20.374;2023-08-30T00:54:34;10.30;;;7.50;;
60076;SDS011;45950;45.208;20.374;2023-08-30T00:57:03;11.80;;;7.72;;
60076;SDS011;45950;45.208;20.374;2023-08-30T00:59:31;15.13;;;9.32;;
60076;SDS011;45950;45.208;20.374;2023-08-30T01:01:58;15.43;;;9.95;;
60076;SDS011;45950;45.208;20.374;2023-08-30T01:04:26;13.85;;;9.70;;
60076;SDS011;45950;45.208;20.374;2023-08-30T01:06:53;11.52;;;7.70;;
60076;SDS011;45950;45.208;20.374;2023-08-30T01:09:19;12.15;;;8.50;;
60076;SDS011;45950;45.208;20.374;2023-08-30T01:11:48;14.80;;;8.27;;
60076;SDS011;45950;45.208;20.374;2023-08-30T01:14:17;12.95;;;9.00;;
60076;SDS011;45950;45.208;20.374;2023-08-30T01:16:45;15.63;;;8.98;;
60076;SDS011;45950;45.208;20.374;2023-08-30T01:22:15;12.05;;;8.00;;
60076;SDS011;45950;45.208;20.374;2023-08-30T01:24:44;10.27;;;7.53;;
60076;SDS011;45950;45.208;20.374;2023-08-30T01:27:14;13.23;;;7.45;;
60076;SDS011;45950;45.208;20.374;2023-08-30T01:29:43;9.73;;;7.30;;
60076;SDS011;45950;45.208;20.374;2023-08-30T01:32:10;11.63;;;6.85;;
60076;SDS011;45950;45.208;20.374;2023-08-30T01:34:37;16.35;;;12.02;;
60076;SDS011;45950;45.208;20.374;2023-08-30T01:37:04;12.02;;;7.45;;
60076;SDS011;45950;45.208;20.374;2023-08-30T01:39:33;9.63;;;6.95;;
60076;SDS011;45950;45.208;20.374;2023-08-30T01:42:00;15.35;;;8.68;;
60076;SDS011;45950;45.208;20.374;2023-08-30T01:44:28;13.70;;;9.23;;
60076;SDS011;45950;45.208;20.374;2023-08-30T01:46:56;18.73;;;9.85;;
60076;SDS011;45950;45.208;20.374;2023-08-30T01:49:23;11.57;;;8.25;;
60076;SDS011;45950;45.208;20.374;2023-08-30T01:51:51;12.50;;;8.48;;
60076;SDS011;45950;45.208;20.374;2023-08-30T01:54:18;12.20;;;8.50;;
60076;SDS011;45950;45.208;20.374;2023-08-30T01:56:45;15.93;;;9.90;;
60076;SDS011;45950;45.208;20.374;2023-08-30T01:59:11;16.08;;;10.48;;
60076;SDS011;45950;45.208;20.374;2023-08-30T02:01:39;14.60;;;10.65;;
60076;SDS011;45950;45.208;20.374;2023-08-30T02:04:06;16.10;;;10.02;;
60076;SDS011;45950;45.208;20.374;2023-08-30T02:06:33;14.02;;;10.02;;
60076;SDS011;45950;45.208;20.374;2023-08-30T02:09:03;11.93;;;9.77;;
60076;SDS011;45950;45.208;20.374;2023-08-30T02:11:31;14.65;;;10.23;;
60076;SDS011;45950;45.208;20.374;2023-08-30T02:13:59;15.23;;;9.45;;
60076;SDS011;45950;45.208;20.374;2023-08-30T02:16:26;17.73;;;11.73;;
60076;SDS011;45950;45.208;20.374;2023-08-30T02:18:55;17.48;;;11.85;;
60076;SDS011;45950;45.208;20.374;2023-08-30T02:21:21;14.32;;;11.25;;
60076;SDS011;45950;45.208;20.374;2023-08-30T02:23:49;15.23;;;11.05;;
60076;SDS011;45950;45.208;20.374;2023-08-30T02:26:17;17.88;;;12.27;;
60076;SDS011;45950;45.208;20.374;2023-08-30T02:28:44;16.02;;;12.27;;
60076;SDS011;45950;45.208;20.374;2023-08-30T02:31:10;16.52;;;12.50;;
60076;SDS011;45950;45.208;20.374;2023-08-30T02:33:37;13.77;;;11.50;;
60076;SDS011;45950;45.208;20.374;2023-08-30T02:36:05;14.27;;;10.82;;
60076;SDS011;45950;45.208;20.374;2023-08-30T02:38:33;15.43;;;11.20;;
60076;SDS011;45950;45.208;20.374;2023-08-30T02:40:59;14.73;;;10.35;;
60076;SDS011;45950;45.208;20.374;2023-08-30T02:43:26;12.45;;;10.27;;
60076;SDS011;45950;45.208;20.374;2023-08-30T02:45:52;15.27;;;10.10;;
60076;SDS011;45950;45.208;20.374;2023-08-30T02:48:19;13.77;;;9.70;;
60076;SDS011;45950;45.208;20.374;2023-08-30T02:50:46;14.20;;;10.68;;
60076;SDS011;45950;45.208;20.374;2023-08-30T02:53:14;12.45;;;9.95;;
60076;SDS011;45950;45.208;20.374;2023-08-30T02:55:40;14.23;;;10.38;;
60076;SDS011;45950;45.208;20.374;2023-08-30T03:03:56;13.65;;;8.95;;
60076;SDS011;45950;45.208;20.374;2023-08-30T03:06:28;14.18;;;10.35;;
60076;SDS011;45950;45.208;20.374;2023-08-30T03:08:56;15.77;;;11.52;;
60076;SDS011;45950;45.208;20.374;2023-08-30T03:11:23;16.30;;;12.00;;
60076;SDS011;45950;45.208;20.374;2023-08-30T03:13:49;16.45;;;11.77;;
60076;SDS011;45950;45.208;20.374;2023-08-30T03:16:16;12.90;;;10.25;;
60076;SDS011;45950;45.208;20.374;2023-08-30T03:18:43;15.40;;;11.82;;
60076;SDS011;45950;45.208;20.374;2023-08-30T03:21:10;14.90;;;11.05;;
60076;SDS011;45950;45.208;20.374;2023-08-30T03:23:37;18.75;;;10.82;;
60076;SDS011;45950;45.208;20.374;2023-08-30T03:26:09;13.13;;;10.32;;
60076;SDS011;45950;45.208;20.374;2023-08-30T03:28:35;14.32;;;11.07;;
60076;SDS011;45950;45.208;20.374;2023-08-30T03:31:02;15.40;;;10.90;;
60076;SDS011;45950;45.208;20.374;2023-08-30T03:33:52;17.45;;;11.00;;
60076;SDS011;45950;45.208;20.374;2023-08-30T03:36:19;15.20;;;10.95;;
60076;SDS011;45950;45.208;20.374;2023-08-30T03:38:46;18.30;;;13.88;;
60076;SDS011;45950;45.208;20.374;2023-08-30T03:41:14;17.15;;;13.50;;
60076;SDS011;45950;45.208;20.374;2023-08-30T03:43:40;17.30;;;12.05;;
60076;SDS011;45950;45.208;20.374;2023-08-30T03:46:07;21.63;;;16.35;;
60076;SDS011;45950;45.208;20.374;2023-08-30T03:48:34;19.58;;;14.15;;
60076;SDS011;45950;45.208;20.374;2023-08-30T03:51:01;19.70;;;15.25;;
60076;SDS011;45950;45.208;20.374;2023-08-30T03:53:27;17.15;;;13.07;;
60076;SDS011;45950;45.208;20.374;2023-08-30T03:55:55;17.17;;;11.98;;
60076;SDS011;45950;45.208;20.374;2023-08-30T03:58:23;19.65;;;15.23;;
60076;SDS011;45950;45.208;20.374;2023-08-30T04:00:49;15.70;;;10.05;;
60076;SDS011;45950;45.208;20.374;2023-08-30T04:03:16;16.85;;;11.27;;
60076;SDS011;45950;45.208;20.374;2023-08-30T04:05:43;15.52;;;11.15;;
60076;SDS011;45950;45.208;20.374;2023-08-30T04:08:09;18.42;;;12.10;;
60076;SDS011;45950;45.208;20.374;2023-08-30T04:10:43;17.52;;;13.38;;
60076;SDS011;45950;45.208;20.374;2023-08-30T04:13:12;17.17;;;11.57;;
60076;SDS011;45950;45.208;20.374;2023-08-30T04:15:41;13.63;;;10.07;;
60076;SDS011;45950;45.208;20.374;2023-08-30T04:18:08;15.38;;;9.25;;
60076;SDS011;45950;45.208;20.374;2023-08-30T04:20:34;14.48;;;10.07;;
60076;SDS011;45950;45.208;20.374;2023-08-30T04:23:01;15.35;;;10.73;;
60076;SDS011;45950;45.208;20.374;2023-08-30T04:25:28;17.23;;;12.63;;
60076;SDS011;45950;45.208;20.374;2023-08-30T04:27:55;15.60;;;11.25;;
60076;SDS011;45950;45.208;20.374;2023-08-30T04:30:21;14.63;;;12.02;;
60076;SDS011;45950;45.208;20.374;2023-08-30T04:32:49;16.10;;;12.93;;
60076;SDS011;45950;45.208;20.374;2023-08-30T04:35:27;13.73;;;10.40;;
60076;SDS011;45950;45.208;20.374;2023-08-30T04:37:54;13.75;;;9.20;;
60076;SDS011;45950;45.208;20.374;2023-08-30T04:40:20;13.18;;;10.18;;
60076;SDS011;45950;45.208;20.374;2023-08-30T04:42:47;10.43;;;9.00;;
60076;SDS011;45950;45.208;20.374;2023-08-30T04:45:14;12.13;;;9.30;;
60076;SDS011;45950;45.208;20.374;2023-08-30T04:50:41;13.15;;;9.02;;
60076;SDS011;45950;45.208;20.374;2023-08-30T04:53:08;14.65;;;9.63;;
60076;SDS011;45950;45.208;20.374;2023-08-30T05:01:40;15.45;;;10.32;;
60076;SDS011;45950;45.208;20.374;2023-08-30T05:04:09;15.00;;;11.57;;
60076;SDS011;45950;45.208;20.374;2023-08-30T05:06:39;15.07;;;11.27;;
60076;SDS011;45950;45.208;20.374;2023-08-30T05:09:05;13.68;;;10.70;;
60076;SDS011;45950;45.208;20.374;2023-08-30T05:11:32;14.65;;;10.57;;
60076;SDS011;45950;45.208;20.374;2023-08-30T05:13:59;15.05;;;11.52;;
60076;SDS011;45950;45.208;20.374;2023-08-30T05:16:25;14.45;;;10.88;;
60076;SDS011;45950;45.208;20.374;2023-08-30T05:18:52;17.85;;;11.40;;
60076;SDS011;45950;45.208;20.374;2023-08-30T05:21:18;15.68;;;12.13;;
60076;SDS011;45950;45.208;20.374;2023-08-30T05:23:46;14.70;;;10.90;;
60076;SDS011;45950;45.208;20.374;2023-08-30T05:26:30;15.85;;;10.98;;
60076;SDS011;45950;45.208;20.374;2023-08-30T05:28:57;22.85;;;13.02;;
60076;SDS011;45950;45.208;20.374;2023-08-30T05:31:23;16.17;;;10.40;;
60076;SDS011;45950;45.208;20.374;2023-08-30T05:33:50;13.70;;;9.98;;
60076;SDS011;45950;45.208;20.374;2023-08-30T05:36:16;17.58;;;13.25;;
60076;SDS011;45950;45.208;20.374;2023-08-30T05:38:43;17.45;;;12.40;;
60076;SDS011;45950;45.208;20.374;2023-08-30T05:41:11;20.80;;;16.73;;
60076;SDS011;45950;45.208;20.374;2023-08-30T05:43:38;23.95;;;17.67;;
60076;SDS011;45950;45.208;20.374;2023-08-30T05:46:04;19.70;;;16.48;;
60076;SDS011;45950;45.208;20.374;2023-08-30T05:48:37;19.75;;;14.88;;
60076;SDS011;45950;45.208;20.374;2023-08-30T05:51:04;17.85;;;15.15;;
60076;SDS011;45950;45.208;20.374;2023-08-30T05:53:30;19.17;;;12.85;;
60076;SDS011;45950;45.208;20.374;2023-08-30T05:55:57;20.95;;;14.85;;
60076;SDS011;45950;45.208;20.374;2023-08-30T05:58:25;23.88;;;16.50;;
60076;SDS011;45950;45.208;20.374;2023-08-30T06:00:52;19.85;;;14.95;;
60076;SDS011;45950;45.208;20.374;2023-08-30T06:03:19;23.75;;;15.43;;
60076;SDS011;45950;45.208;20.374;2023-08-30T06:08:49;18.45;;;13.18;;
60076;SDS011;45950;45.208;20.374;2023-08-30T06:11:15;16.58;;;13.45;;
60076;SDS011;45950;45.208;20.374;2023-08-30T06:13:43;17.02;;;13.70;;
60076;SDS011;45950;45.208;20.374;2023-08-30T06:16:10;17.20;;;12.68;;
60076;SDS011;45950;45.208;20.374;2023-08-30T06:53:55;17.90;;;15.07;;
60076;SDS011;45950;45.208;20.374;2023-08-30T06:56:25;17.02;;;13.98;;
60076;SDS011;45950;45.208;20.374;2023-08-30T06:58:52;17.75;;;13.40;;
60076;SDS011;45950;45.208;20.374;2023-08-30T07:01:18;20.63;;;16.38;;
60076;SDS011;45950;45.208;20.374;2023-08-30T07:03:45;15.77;;;12.60;;
60076;SDS011;45950;45.208;20.374;2023-08-30T07:06:11;19.17;;;13.55;;
60076;SDS011;45950;45.208;20.374;2023-08-30T07:08:38;18.95;;;12.55;;
60076;SDS011;45950;45.208;20.374;2023-08-30T07:11:06;19.05;;;12.68;;
60076;SDS011;45950;45.208;20.374;2023-08-30T07:16:35;15.38;;;11.15;;
60076;SDS011;45950;45.208;20.374;2023-08-30T07:19:02;15.10;;;12.57;;
60076;SDS011;45950;45.208;20.374;2023-08-30T07:21:30;18.48;;;14.73;;
60076;SDS011;45950;45.208;20.374;2023-08-30T07:23:56;13.48;;;10.82;;
60076;SDS011;45950;45.208;20.374;2023-08-30T07:26:24;14.57;;;12.27;;
60076;SDS011;45950;45.208;20.374;2023-08-30T07:28:51;13.75;;;11.02;;
60076;SDS011;45950;45.208;20.374;2023-08-30T07:31:17;14.82;;;11.80;;
60076;SDS011;45950;45.208;20.374;2023-08-30T07:33:44;18.92;;;15.27;;
60076;SDS011;45950;45.208;20.374;2023-08-30T07:36:11;19.45;;;17.15;;
60076;SDS011;45950;45.208;20.374;2023-08-30T07:38:37;20.52;;;18.33;;
60076;SDS011;45950;45.208;20.374;2023-08-30T07:41:04;21.63;;;17.83;;
60076;SDS011;45950;45.208;20.374;2023-08-30T07:43:32;16.60;;;12.05;;
60076;SDS011;45950;45.208;20.374;2023-08-30T07:45:58;21.17;;;15.95;;
60076;SDS011;45950;45.208;20.374;2023-08-30T07:48:25;20.83;;;17.42;;
60076;SDS011;45950;45.208;20.374;2023-08-30T07:50:52;15.70;;;11.48;;
60076;SDS011;45950;45.208;20.374;2023-08-30T07:53:18;11.82;;;9.68;;
60076;SDS011;45950;45.208;20.374;2023-08-30T07:55:47;15.20;;;10.40;;
60076;SDS011;45950;45.208;20.374;2023-08-30T07:58:14;11.77;;;9.35;;
60076;SDS011;45950;45.208;20.374;2023-08-30T08:00:42;13.43;;;10.88;;
60076;SDS011;45950;45.208;20.374;2023-08-30T08:03:25;14.93;;;11.40;;
60076;SDS011;45950;45.208;20.374;2023-08-30T08:05:51;14.75;;;11.15;;
60076;SDS011;45950;45.208;20.374;2023-08-30T08:08:18;13.85;;;11.20;;
60076;SDS011;45950;45.208;20.374;2023-08-30T08:10:44;14.45;;;10.57;;
60076;SDS011;45950;45.208;20.374;2023-08-30T08:13:11;10.18;;;8.45;;
60076;SDS011;45950;45.208;20.374;2023-08-30T08:15:38;15.18;;;11.80;;
60076;SDS011;45950;45.208;20.374;2023-08-30T08:18:06;13.90;;;11.60;;
60076;SDS011;45950;45.208;20.374;2023-08-30T08:20:47;10.85;;;8.98;;
60076;SDS011;45950;45.208;20.374;2023-08-30T08:23:13;13.82;;;11.27;;
60076;SDS011;45950;45.208;20.374;2023-08-30T08:25:40;16.13;;;12.88;;
60076;SDS011;45950;45.208;20.374;2023-08-30T08:31:07;15.35;;;12.23;;
60076;SDS011;45950;45.208;20.374;2023-08-30T08:33:35;13.82;;;12.43;;
60076;SDS011;45950;45.208;20.374;2023-08-30T08:36:02;13.43;;;10.80;;
60076;SDS011;45950;45.208;20.374;2023-08-30T08:38:29;12.23;;;10.32;;
60076;SDS011;45950;45.208;20.374;2023-08-30T08:41:00;13.93;;;10.80;;
60076;SDS011;45950;45.208;20.374;2023-08-30T08:43:39;15.95;;;12.38;;
60076;SDS011;45950;45.208;20.374;2023-08-30T08:46:06;12.30;;;9.50;;
60076;SDS011;45950;45.208;20.374;2023-08-30T08:48:39;15.25;;;13.15;;
60076;SDS011;45950;45.208;20.374;2023-08-30T08:51:06;9.88;;;8.40;;
60076;SDS011;45950;45.208;20.374;2023-08-30T08:53:32;17.10;;;12.40;;
60076;SDS011;45950;45.208;20.374;2023-08-30T08:55:59;12.88;;;9.38;;
60076;SDS011;45950;45.208;20.374;2023-08-30T08:58:27;12.45;;;9.18;;
60076;SDS011;45950;45.208;20.374;2023-08-30T09:00:54;12.05;;;9.27;;
60076;SDS011;45950;45.208;20.374;2023-08-30T09:03:21;11.68;;;9.18;;
60076;SDS011;45950;45.208;20.374;2023-08-30T09:05:49;13.60;;;8.95;;
60076;SDS011;45950;45.208;20.374;2023-08-30T09:08:17;11.75;;;8.90;;
60076;SDS011;45950;45.208;20.374;2023-08-30T09:10:44;14.27;;;7.43;;
60076;SDS011;45950;45.208;20.374;2023-08-30T09:13:10;10.38;;;6.13;;
60076;SDS011;45950;45.208;20.374;2023-08-30T09:15:37;11.32;;;7.40;;
60076;SDS011;45950;45.208;20.374;2023-08-30T09:18:03;11.43;;;7.00;;
60076;SDS011;45950;45.208;20.374;2023-08-30T09:20:30;8.50;;;5.93;;
60076;SDS011;45950;45.208;20.374;2023-08-30T09:22:58;5.70;;;4.50;;
60076;SDS011;45950;45.208;20.374;2023-08-30T09:25:25;7.05;;;4.82;;
60076;SDS011;45950;45.208;20.374;2023-08-30T09:27:56;8.40;;;5.63;;
60076;SDS011;45950;45.208;20.374;2023-08-30T09:30:23;10.25;;;4.57;;
60076;SDS011;45950;45.208;20.374;2023-08-30T09:32:50;5.95;;;3.65;;
60076;SDS011;45950;45.208;20.374;2023-08-30T09:35:17;5.70;;;4.13;;
60076;SDS011;45950;45.208;20.374;2023-08-30T09:37:48;7.47;;;4.80;;
60076;SDS011;45950;45.208;20.374;2023-08-30T09:40:19;8.10;;;3.95;;
60076;SDS011;45950;45.208;20.374;2023-08-30T09:42:46;9.40;;;4.75;;
60076;SDS011;45950;45.208;20.374;2023-08-30T09:45:18;5.70;;;4.15;;
60076;SDS011;45950;45.208;20.374;2023-08-30T09:47:46;6.35;;;4.35;;
60076;SDS011;45950;45.208;20.374;2023-08-30T09:50:13;9.25;;;4.43;;
60076;SDS011;45950;45.208;20.374;2023-08-30T09:52:58;8.45;;;4.78;;
60076;SDS011;45950;45.208;20.374;2023-08-30T09:55:27;6.22;;;4.93;;
60076;SDS011;45950;45.208;20.374;2023-08-30T09:57:54;11.40;;;6.80;;
60076;SDS011;45950;45.208;20.374;2023-08-30T10:00:27;12.48;;;9.70;;
60076;SDS011;45950;45.208;20.374;2023-08-30T10:02:54;12.65;;;9.75;;
60076;SDS011;45950;45.208;20.374;2023-08-30T10:05:20;14.57;;;9.13;;
60076;SDS011;45950;45.208;20.374;2023-08-30T10:07:58;12.88;;;9.70;;
60076;SDS011;45950;45.208;20.374;2023-08-30T10:10:25;10.90;;;8.20;;
60076;SDS011;45950;45.208;20.374;2023-08-30T10:12:53;8.98;;;6.60;;
60076;SDS011;45950;45.208;20.374;2023-08-30T10:15:30;14.15;;;8.68;;
60076;SDS011;45950;45.208;20.374;2023-08-30T10:17:59;12.98;;;9.90;;
60076;SDS011;45950;45.208;20.374;2023-08-30T10:20:28;15.32;;;9.93;;
60076;SDS011;45950;45.208;20.374;2023-08-30T10:25:57;13.40;;;10.93;;
60076;SDS011;45950;45.208;20.374;2023-08-30T10:28:26;15.88;;;12.52;;
60076;SDS011;45950;45.208;20.374;2023-08-30T10:30:53;13.43;;;11.27;;
60076;SDS011;45950;45.208;20.374;2023-08-30T10:33:20;14.40;;;11.48;;
60076;SDS011;45950;45.208;20.374;2023-08-30T10:35:51;15.95;;;10.63;;
60076;SDS011;45950;45.208;20.374;2023-08-30T10:38:36;12.57;;;11.20;;
60076;SDS011;45950;45.208;20.374;2023-08-30T10:41:08;15.68;;;11.63;;
60076;SDS011;45950;45.208;20.374;2023-08-30T10:43:36;15.55;;;12.07;;
60076;SDS011;45950;45.208;20.374;2023-08-30T10:46:04;16.50;;;10.60;;
60076;SDS011;45950;45.208;20.374;2023-08-30T10:48:38;11.68;;;10.48;;
60076;SDS011;45950;45.208;20.374;2023-08-30T10:51:06;15.48;;;13.82;;
60076;SDS011;45950;45.208;20.374;2023-08-30T10:53:42;10.75;;;6.10;;
60076;SDS011;45950;45.208;20.374;2023-08-30T10:56:12;9.20;;;4.70;;
60076;SDS011;45950;45.208;20.374;2023-08-30T10:58:40;6.97;;;5.22;;
60076;SDS011;45950;45.208;20.374;2023-08-30T11:01:07;7.53;;;5.68;;
60076;SDS011;45950;45.208;20.374;2023-08-30T11:03:35;12.10;;;6.88;;
60076;SDS011;45950;45.208;20.374;2023-08-30T11:06:02;9.07;;;7.60;;
60076;SDS011;45950;45.208;20.374;2023-08-30T11:08:29;12.73;;;8.85;;
60076;SDS011;45950;45.208;20.374;2023-08-30T11:11:00;13.30;;;10.15;;
60076;SDS011;45950;45.208;20.374;2023-08-30T11:13:27;13.88;;;9.95;;
60076;SDS011;45950;45.208;20.374;2023-08-30T11:15:55;20.33;;;10.93;;
60076;SDS011;45950;45.208;20.374;2023-08-30T11:18:25;16.15;;;10.13;;
60076;SDS011;45950;45.208;20.374;2023-08-30T11:20:53;10.45;;;6.20;;
60076;SDS011;45950;45.208;20.374;2023-08-30T11:23:22;7.43;;;3.70;;
60076;SDS011;45950;45.208;20.374;2023-08-30T11:25:49;6.75;;;4.55;;
60076;SDS011;45950;45.208;20.374;2023-08-30T11:28:21;8.48;;;6.00;;
60076;SDS011;45950;45.208;20.374;2023-08-30T11:30:47;16.13;;;9.02;;
60076;SDS011;45950;45.208;20.374;2023-08-30T11:33:17;11.52;;;8.20;;
60076;SDS011;45950;45.208;20.374;2023-08-30T11:35:44;12.50;;;7.68;;
60076;SDS011;45950;45.208;20.374;2023-08-30T11:38:11;8.32;;;5.95;;
60076;SDS011;45950;45.208;20.374;2023-08-30T11:40:39;10.90;;;5.53;;
60076;SDS011;45950;45.208;20.374;2023-08-30T11:43:06;8.77;;;6.95;;
60076;SDS011;45950;45.208;20.374;2023-08-30T11:48:22;10.25;;;8.30;;
60076;SDS011;45950;45.208;20.374;2023-08-30T11:50:48;11.50;;;7.53;;
60076;SDS011;45950;45.208;20.374;2023-08-30T11:53:15;11.00;;;6.60;;
60076;SDS011;45950;45.208;20.374;2023-08-30T11:55:42;8.95;;;6.00;;
60076;SDS011;45950;45.208;20.374;2023-08-30T12:14:36;12.70;;;9.02;;
60076;SDS011;45950;45.208;20.374;2023-08-30T12:17:03;13.18;;;10.02;;
60076;SDS011;45950;45.208;20.374;2023-08-30T12:19:31;13.48;;;10.32;;
60076;SDS011;45950;45.208;20.374;2023-08-30T12:22:02;13.27;;;10.65;;
60076;SDS011;45950;45.208;20.374;2023-08-30T12:24:39;12.15;;;8.68;;
60076;SDS011;45950;45.208;20.374;2023-08-30T12:27:06;10.30;;;8.07;;
60076;SDS011;45950;45.208;20.374;2023-08-30T12:29:32;11.52;;;8.35;;
60076;SDS011;45950;45.208;20.374;2023-08-30T12:32:00;7.70;;;6.15;;
60076;SDS011;45950;45.208;20.374;2023-08-30T12:34:27;6.43;;;5.30;;
60076;SDS011;45950;45.208;20.374;2023-08-30T12:36:53;4.93;;;4.13;;
60076;SDS011;45950;45.208;20.374;2023-08-30T12:39:20;6.93;;;4.38;;
60076;SDS011;45950;45.208;20.374;2023-08-30T12:41:46;5.50;;;4.25;;
60076;SDS011;45950;45.208;20.374;2023-08-30T12:44:13;5.25;;;3.90;;
60076;SDS011;45950;45.208;20.374;2023-08-30T12:46:40;7.07;;;4.68;;
60076;SDS011;45950;45.208;20.374;2023-08-30T12:49:18;6.75;;;4.70;;
60076;SDS011;45950;45.208;20.374;2023-08-30T12:51:45;6.22;;;4.63;;
60076;SDS011;45950;45.208;20.374;2023-08-30T12:54:13;5.65;;;4.30;;
60076;SDS011;45950;45.208;20.374;2023-08-30T12:56:40;5.43;;;4.85;;
60076;SDS011;45950;45.208;20.374;2023-08-30T12:59:06;7.50;;;4.50;;
60076;SDS011;45950;45.208;20.374;2023-08-30T13:01:33;6.95;;;4.85;;
60076;SDS011;45950;45.208;20.374;2023-08-30T13:03:59;5.60;;;4.60;;
60076;SDS011;45950;45.208;20.374;2023-08-30T13:06:27;7.30;;;5.10;;
60076;SDS011;45950;45.208;20.374;2023-08-30T13:08:54;5.20;;;4.03;;
60076;SDS011;45950;45.208;20.374;2023-08-30T13:11:20;6.28;;;4.43;;
60076;SDS011;45950;45.208;20.374;2023-08-30T13:13:47;6.43;;;4.40;;
60076;SDS011;45950;45.208;20.374;2023-08-30T13:19:16;7.90;;;4.93;;
60076;SDS011;45950;45.208;20.374;2023-08-30T13:21:44;5.50;;;4.28;;
60076;SDS011;45950;45.208;20.374;2023-08-30T13:24:11;7.07;;;4.03;;
60076;SDS011;45950;45.208;20.374;2023-08-30T13:26:37;5.07;;;3.92;;
60076;SDS011;45950;45.208;20.374;2023-08-30T13:29:04;6.97;;;4.35;;
60076;SDS011;45950;45.208;20.374;2023-08-30T13:31:31;5.88;;;4.60;;
60076;SDS011;45950;45.208;20.374;2023-08-30T13:33:57;6.32;;;4.60;;
60076;SDS011;45950;45.208;20.374;2023-08-30T13:36:24;5.90;;;4.10;;
60076;SDS011;45950;45.208;20.374;2023-08-30T13:38:52;7.75;;;4.70;;
60076;SDS011;45950;45.208;20.374;2023-08-30T13:41:19;7.85;;;4.25;;
60076;SDS011;45950;45.208;20.374;2023-08-30T13:43:45;9.70;;;5.18;;
60076;SDS011;45950;45.208;20.374;2023-08-30T13:46:12;7.80;;;4.78;;
60076;SDS011;45950;45.208;20.374;2023-08-30T13:48:38;6.75;;;5.20;;
60076;SDS011;45950;45.208;20.374;2023-08-30T13:51:06;5.82;;;4.47;;
60076;SDS011;45950;45.208;20.374;2023-08-30T13:53:33;5.63;;;4.30;;
60076;SDS011;45950;45.208;20.374;2023-08-30T13:56:01;7.07;;;4.78;;
60076;SDS011;45950;45.208;20.374;2023-08-30T13:58:28;6.18;;;5.38;;
60076;SDS011;45950;45.208;20.374;2023-08-30T14:00:55;7.93;;;6.68;;
60076;SDS011;45950;45.208;20.374;2023-08-30T14:03:21;5.82;;;4.75;;
60076;SDS011;45950;45.208;20.374;2023-08-30T14:05:48;7.30;;;4.95;;
60076;SDS011;45950;45.208;20.374;2023-08-30T14:08:15;7.07;;;4.63;;
60076;SDS011;45950;45.208;20.374;2023-08-30T14:10:41;6.00;;;5.00;;
60076;SDS011;45950;45.208;20.374;2023-08-30T14:13:09;7.22;;;5.55;;
60076;SDS011;45950;45.208;20.374;2023-08-30T14:15:36;7.50;;;4.82;;
60076;SDS011;45950;45.208;20.374;2023-08-30T14:18:06;8.85;;;4.93;;
60076;SDS011;45950;45.208;20.374;2023-08-30T14:20:32;5.95;;;4.25;;
60076;SDS011;45950;45.208;20.374;2023-08-30T14:23:00;5.45;;;4.35;;
60076;SDS011;45950;45.208;20.374;2023-08-30T14:28:24;6.28;;;4.50;;
60076;SDS011;45950;45.208;20.374;2023-08-30T14:30:51;7.82;;;5.50;;
60076;SDS011;45950;45.208;20.374;2023-08-30T14:33:18;7.93;;;4.85;;
60076;SDS011;45950;45.208;20.374;2023-08-30T14:35:47;10.05;;;4.85;;
60076;SDS011;45950;45.208;20.374;2023-08-30T14:38:14;5.68;;;4.60;;
60076;SDS011;45950;45.208;20.374;2023-08-30T14:40:40;5.88;;;4.72;;
60076;SDS011;45950;45.208;20.374;2023-08-30T14:43:26;6.43;;;4.28;;
60076;SDS011;45950;45.208;20.374;2023-08-30T14:45:58;5.65;;;4.20;;
60076;SDS011;45950;45.208;20.374;2023-08-30T14:48:25;6.28;;;4.75;;
60076;SDS011;45950;45.208;20.374;2023-08-30T14:50:51;5.03;;;3.90;;
60076;SDS011;45950;45.208;20.374;2023-08-30T14:53:18;5.15;;;3.53;;
60076;SDS011;45950;45.208;20.374;2023-08-30T14:55:47;6.05;;;4.00;;
60076;SDS011;45950;45.208;20.374;2023-08-30T14:58:14;7.55;;;4.13;;
60076;SDS011;45950;45.208;20.374;2023-08-30T15:00:42;5.53;;;3.50;;
60076;SDS011;45950;45.208;20.374;2023-08-30T15:03:09;3.83;;;2.88;;
60076;SDS011;45950;45.208;20.374;2023-08-30T15:05:36;5.50;;;3.33;;
60076;SDS011;45950;45.208;20.374;2023-08-30T15:08:03;4.32;;;3.42;;
60076;SDS011;45950;45.208;20.374;2023-08-30T15:10:29;5.45;;;3.33;;
60076;SDS011;45950;45.208;20.374;2023-08-30T15:12:56;4.65;;;3.10;;
60076;SDS011;45950;45.208;20.374;2023-08-30T15:15:39;4.30;;;3.10;;
60076;SDS011;45950;45.208;20.374;2023-08-30T15:18:07;3.47;;;2.63;;
60076;SDS011;45950;45.208;20.374;2023-08-30T15:23:31;3.28;;;2.20;;
60076;SDS011;45950;45.208;20.374;2023-08-30T15:25:58;3.97;;;2.65;;
60076;SDS011;45950;45.208;20.374;2023-08-30T15:28:25;4.22;;;2.72;;
60076;SDS011;45950;45.208;20.374;2023-08-30T15:33:49;3.72;;;2.90;;
60076;SDS011;45950;45.208;20.374;2023-08-30T15:36:16;4.88;;;2.72;;
60076;SDS011;45950;45.208;20.374;2023-08-30T15:38:43;2.97;;;2.47;;
60076;SDS011;45950;45.208;20.374;2023-08-30T15:41:10;5.00;;;2.55;;
60076;SDS011;45950;45.208;20.374;2023-08-30T15:43:37;4.82;;;2.70;;
60076;SDS011;45950;45.208;20.374;2023-08-30T15:46:05;4.78;;;2.75;;
60076;SDS011;45950;45.208;20.374;2023-08-30T15:48:32;3.42;;;2.45;;
60076;SDS011;45950;45.208;20.374;2023-08-30T15:51:02;5.28;;;3.28;;
60076;SDS011;45950;45.208;20.374;2023-08-30T15:53:29;5.22;;;3.00;;
60076;SDS011;45950;45.208;20.374;2023-08-30T15:55:55;4.03;;;2.60;;
60076;SDS011;45950;45.208;20.374;2023-08-30T15:58:22;5.35;;;3.00;;
60076;SDS011;45950;45.208;20.374;2023-08-30T16:00:49;3.30;;;2.78;;